createdAt,value
2023-05-18T00:01:34.023Z,99737.78
2023-05-18T00:04:02.222Z,99737.19
2023-05-18T00:06:29.589Z,99724.66
2023-05-18T00:08:56.995Z,99738.56
2023-05-18T00:11:24.135Z,99729.97
2023-05-18T00:13:51.166Z,99733.13
2023-05-18T00:16:18.273Z,99738.41
2023-05-18T00:18:46.341Z,99742.84
2023-05-18T00:21:16.393Z,99743.00
2023-05-18T00:23:49.729Z,99740.47
2023-05-18T00:26:16.978Z,99742.56
2023-05-18T00:28:44.939Z,99746.69
2023-05-18T00:31:12.255Z,99745.28
2023-05-18T00:33:41.305Z,99734.34
2023-05-18T00:36:08.541Z,99747.31
2023-05-18T00:38:37.021Z,99747.78
2023-05-18T00:41:04.163Z,99745.50
2023-05-18T00:43:31.198Z,99742.22
2023-05-18T00:45:58.761Z,99742.91
2023-05-18T00:48:26.163Z,99742.16
2023-05-18T00:50:54.073Z,99736.25
2023-05-18T00:53:21.125Z,99737.56
2023-05-18T00:55:49.332Z,99740.28
2023-05-18T00:58:16.779Z,99734.34
2023-05-18T01:00:44.240Z,99736.97
2023-05-18T01:03:12.208Z,99736.50
2023-05-18T01:05:39.389Z,99736.09
2023-05-18T01:08:07.163Z,99740.28
2023-05-18T01:10:38.247Z,99741.31
2023-05-18T01:13:16.552Z,99739.78
2023-05-18T01:15:44.916Z,99740.59
2023-05-18T01:19:01.300Z,99733.28
2023-05-18T01:21:51.881Z,99736.31
2023-05-18T01:24:36.308Z,99743.63
2023-05-18T01:27:04.810Z,99736.22
2023-05-18T01:29:31.941Z,99743.75
2023-05-18T01:32:04.031Z,99738.72
2023-05-18T01:34:31.229Z,99752.16
2023-05-18T01:36:59.867Z,99748.75
2023-05-18T01:39:29.293Z,99745.69
2023-05-18T01:41:59.839Z,99742.81
2023-05-18T01:44:40.569Z,99741.13
2023-05-18T01:47:16.246Z,99734.09
2023-05-18T01:49:48.558Z,99750.22
2023-05-18T01:52:25.124Z,99750.81
2023-05-18T01:54:54.673Z,99740.81
2023-05-18T01:57:24.219Z,99756.09
2023-05-18T01:59:51.730Z,99748.44
2023-05-18T02:02:18.993Z,99751.94
2023-05-18T02:04:46.242Z,99746.19
2023-05-18T02:07:14.387Z,99750.88
2023-05-18T02:09:44.373Z,99753.56
2023-05-18T02:12:11.838Z,99763.09
2023-05-18T02:14:39.467Z,99760.88
2023-05-18T02:17:07.834Z,99756.88
2023-05-18T02:19:38.318Z,99765.69
2023-05-18T02:22:07.116Z,99761.94
2023-05-18T02:24:37.612Z,99760.13
2023-05-18T02:27:05.977Z,99759.31
2023-05-18T02:29:32.969Z,99762.13
2023-05-18T02:32:00.125Z,99764.75
2023-05-18T02:34:27.660Z,99758.94
2023-05-18T02:36:58.215Z,99760.81
2023-05-18T02:39:25.346Z,99757.63
2023-05-18T02:41:52.364Z,99752.78
2023-05-18T02:44:19.915Z,99740.38
2023-05-18T02:46:48.967Z,99762.34
2023-05-18T02:49:16.396Z,99756.16
2023-05-18T02:51:43.538Z,99757.81
2023-05-18T02:54:11.802Z,99753.78
2023-05-18T02:56:41.915Z,99757.38
2023-05-18T02:59:18.300Z,99747.13
2023-05-18T03:01:45.573Z,99754.84
2023-05-18T03:04:14.104Z,99747.78
2023-05-18T03:06:47.833Z,99741.34
2023-05-18T03:09:16.722Z,99747.75
2023-05-18T03:11:45.965Z,99752.28
2023-05-18T03:14:13.244Z,99758.34
2023-05-18T03:16:40.657Z,99755.72
2023-05-18T03:19:15.455Z,99766.72
2023-05-18T03:21:43.123Z,99764.31
2023-05-18T03:24:12.243Z,99774.25
2023-05-18T03:26:44.401Z,99767.22
2023-05-18T03:29:13.675Z,99764.59
2023-05-18T03:31:41.624Z,99769.34
2023-05-18T03:34:10.674Z,99780.84
2023-05-18T03:36:42.623Z,99772.00
2023-05-18T03:39:10.774Z,99775.34
2023-05-18T03:41:38.307Z,99776.47
2023-05-18T03:44:09.685Z,99779.25
2023-05-18T03:46:36.937Z,99778.25
2023-05-18T03:49:07.085Z,99763.63
2023-05-18T03:51:39.288Z,99760.38
2023-05-18T03:54:06.400Z,99782.34
2023-05-18T03:56:33.649Z,99778.94
2023-05-18T03:59:03.611Z,99783.38
2023-05-18T04:01:32.952Z,99780.47
2023-05-18T04:04:01.837Z,99764.09
2023-05-18T04:06:32.718Z,99782.84
2023-05-18T04:09:07.183Z,99768.66
2023-05-18T04:11:38.527Z,99788.38
2023-05-18T04:14:08.844Z,99773.34
2023-05-18T04:16:36.074Z,99778.06
2023-05-18T04:19:08.142Z,99767.69
2023-05-18T04:21:36.462Z,99785.53
2023-05-18T04:24:07.393Z,99777.94
2023-05-18T04:26:36.759Z,99782.06
2023-05-18T04:29:04.240Z,99787.31
2023-05-18T04:31:34.830Z,99790.38
2023-05-18T04:34:01.870Z,99791.50
2023-05-18T04:36:31.996Z,99765.91
2023-05-18T04:39:07.994Z,99788.09
2023-05-18T04:41:36.034Z,99773.69
2023-05-18T04:44:05.353Z,99781.34
2023-05-18T04:47:01.791Z,99775.13
2023-05-18T04:49:29.534Z,99768.31
2023-05-18T04:52:02.813Z,99772.97
2023-05-18T04:54:31.043Z,99760.13
2023-05-18T04:56:59.309Z,99757.69
2023-05-18T04:59:37.498Z,99774.63
2023-05-18T05:02:05.859Z,99765.06
2023-05-18T05:04:36.123Z,99774.34
2023-05-18T05:07:05.811Z,99764.00
2023-05-18T05:09:36.271Z,99759.59
2023-05-18T05:12:07.438Z,99777.63
2023-05-18T05:14:39.933Z,99770.25
2023-05-18T05:17:07.226Z,99765.59
2023-05-18T05:19:36.603Z,99772.66
2023-05-18T05:22:03.853Z,99759.78
2023-05-18T05:24:31.302Z,99767.91
2023-05-18T05:26:59.952Z,99770.63
2023-05-18T05:29:29.299Z,99770.31
2023-05-18T05:31:58.868Z,99777.59
2023-05-18T05:34:26.085Z,99777.56
2023-05-18T05:36:54.121Z,99776.69
2023-05-18T05:39:23.714Z,99768.72
2023-05-18T05:41:53.696Z,99768.41
2023-05-18T05:44:20.920Z,99770.25
2023-05-18T05:46:49.375Z,99773.75
2023-05-18T05:49:19.476Z,99764.00
2023-05-18T05:51:46.784Z,99772.09
2023-05-18T05:54:14.922Z,99762.22
2023-05-18T05:56:41.995Z,99759.75
2023-05-18T05:59:12.743Z,99761.56
2023-05-18T06:01:40.080Z,99760.13
2023-05-18T06:04:10.906Z,99773.66
2023-05-18T06:06:57.500Z,99765.66
2023-05-18T06:09:27.451Z,99765.28
2023-05-18T06:11:55.508Z,99772.22
2023-05-18T06:14:24.364Z,99767.38
2023-05-18T06:16:52.218Z,99758.19
2023-05-18T06:19:19.966Z,99763.94
2023-05-18T06:21:47.290Z,99766.81
2023-05-18T06:24:17.719Z,99775.91
2023-05-18T06:27:14.203Z,99765.16
2023-05-18T06:29:55.061Z,99766.97
2023-05-18T06:32:40.746Z,99756.38
2023-05-18T06:35:16.160Z,99766.25
2023-05-18T06:37:44.718Z,99764.09
2023-05-18T06:40:13.440Z,99765.66
2023-05-18T06:42:40.565Z,99764.47
2023-05-18T06:45:35.237Z,99765.28
2023-05-18T06:48:19.066Z,99769.28
2023-05-18T06:50:49.078Z,99762.63
2023-05-18T06:53:16.412Z,99753.84
2023-05-18T06:55:45.761Z,99756.72
2023-05-18T06:58:13.288Z,99755.53
2023-05-18T07:00:44.004Z,99744.53
2023-05-18T07:03:11.538Z,99744.84
2023-05-18T07:05:43.783Z,99761.38
2023-05-18T07:08:10.896Z,99773.41
2023-05-18T07:10:40.470Z,99776.06
2023-05-18T07:13:07.605Z,99767.72
2023-05-18T07:15:34.876Z,99776.16
2023-05-18T07:18:04.358Z,99769.22
2023-05-18T07:20:34.990Z,99758.22
2023-05-18T07:23:03.143Z,99757.72
2023-05-18T07:25:30.478Z,99747.03
2023-05-18T07:27:58.841Z,99770.03
2023-05-18T07:30:28.290Z,99766.66
2023-05-18T07:33:15.582Z,99762.06
2023-05-18T07:35:45.980Z,99768.81
2023-05-18T07:38:13.586Z,99760.97
2023-05-18T07:40:45.448Z,99753.31
2023-05-18T07:43:31.305Z,99764.13
2023-05-18T07:45:58.517Z,99759.69
2023-05-18T07:48:25.782Z,99756.47
2023-05-18T07:51:12.224Z,99774.41
2023-05-18T07:53:42.251Z,99757.38
2023-05-18T07:56:09.488Z,99766.53
2023-05-18T07:58:37.582Z,99765.75
2023-05-18T08:01:04.708Z,99777.22
2023-05-18T08:03:33.150Z,99762.56
2023-05-18T08:06:00.915Z,99771.63
2023-05-18T08:08:29.073Z,99773.16
2023-05-18T08:10:59.786Z,99766.09
2023-05-18T08:13:26.894Z,99751.06
2023-05-18T08:16:12.674Z,99764.56
2023-05-18T08:18:40.552Z,99768.19
2023-05-18T08:21:10.199Z,99755.47
2023-05-18T08:23:39.589Z,99750.34
2023-05-18T08:26:08.406Z,99738.16
2023-05-18T08:28:35.525Z,99735.91
2023-05-18T08:31:02.635Z,99746.81
2023-05-18T08:33:29.778Z,99752.16
2023-05-18T08:35:56.795Z,99747.13
2023-05-18T08:38:23.978Z,99733.75
2023-05-18T08:40:59.919Z,99718.91
2023-05-18T08:43:33.488Z,99733.63
2023-05-18T08:46:25.866Z,99739.16
2023-05-18T08:48:54.026Z,99725.06
2023-05-18T08:51:22.162Z,99740.97
2023-05-18T08:53:53.990Z,99733.19
2023-05-18T08:56:24.755Z,99722.19
2023-05-18T08:58:55.110Z,99736.06
2023-05-18T09:01:28.853Z,99732.22
2023-05-18T09:03:58.284Z,99739.09
2023-05-18T09:06:26.323Z,99728.69
2023-05-18T09:08:54.674Z,99724.75
2023-05-18T09:11:26.905Z,99734.94
2023-05-18T09:13:55.196Z,99737.09
2023-05-18T09:16:22.503Z,99725.38
2023-05-18T09:18:49.778Z,99724.56
2023-05-18T09:21:16.983Z,99708.28
2023-05-18T09:23:45.010Z,99709.09
2023-05-18T09:26:13.524Z,99724.75
2023-05-18T09:28:42.358Z,99712.88
2023-05-18T09:31:19.460Z,99736.06
2023-05-18T09:33:47.571Z,99713.13
2023-05-18T09:36:16.689Z,99724.56
2023-05-18T09:38:48.231Z,99730.06
2023-05-18T09:41:20.387Z,99715.94
2023-05-18T09:50:37.613Z,99715.97
2023-05-18T09:53:25.050Z,99720.97
2023-05-18T09:55:52.218Z,99690.03
2023-05-18T09:58:24.727Z,99701.16
2023-05-18T10:00:57.141Z,99715.78
2023-05-18T10:03:25.311Z,99711.81
2023-05-18T10:05:52.391Z,99708.84
2023-05-18T10:08:25.961Z,99697.19
2023-05-18T10:10:53.093Z,99696.00
2023-05-18T10:13:26.519Z,99690.38
2023-05-18T10:16:00.520Z,99696.31
2023-05-18T10:18:32.419Z,99686.31
2023-05-18T10:21:01.924Z,99689.63
2023-05-18T10:23:32.860Z,99701.41
2023-05-18T10:26:00.553Z,99696.56
2023-05-18T10:28:41.545Z,99698.22
2023-05-18T10:31:16.226Z,99690.25
2023-05-18T10:33:46.530Z,99693.88
2023-05-18T10:36:13.661Z,99681.75
2023-05-18T10:38:45.516Z,99686.72
2023-05-18T10:41:16.326Z,99694.16
2023-05-18T10:43:45.621Z,99694.13
2023-05-18T10:46:16.192Z,99688.31
2023-05-18T10:51:14.079Z,99686.06
2023-05-18T10:53:43.980Z,99686.22
2023-05-18T10:56:11.420Z,99677.66
2023-05-18T10:58:39.025Z,99674.28
2023-05-18T11:01:09.445Z,99674.53
2023-05-18T11:03:38.755Z,99658.94
2023-05-18T11:06:09.101Z,99670.19
2023-05-18T11:08:49.526Z,99651.75
2023-05-18T11:11:19.148Z,99647.34
2023-05-18T11:13:51.553Z,99644.72
2023-05-18T11:16:20.050Z,99645.38
2023-05-18T11:18:52.586Z,99653.88
2023-05-18T11:24:31.610Z,99668.50
2023-05-18T11:27:03.781Z,99652.78
2023-05-18T11:29:32.826Z,99642.09
2023-05-18T11:32:02.757Z,99638.75
2023-05-18T11:34:42.406Z,99641.91
2023-05-18T11:37:10.453Z,99637.06
2023-05-18T11:39:44.697Z,99637.25
2023-05-18T11:42:15.190Z,99645.69
2023-05-18T11:44:42.023Z,99638.88
2023-05-18T11:47:34.089Z,99634.84
2023-05-18T11:50:01.033Z,99637.66
2023-05-18T11:52:27.917Z,99637.69
2023-05-18T11:54:55.767Z,99638.84
2023-05-18T11:57:35.250Z,99630.44
2023-05-18T12:00:12.377Z,99628.28
2023-05-18T12:02:41.928Z,99623.50
2023-05-18T12:05:09.713Z,99649.34
2023-05-18T12:07:36.783Z,99628.72
2023-05-18T12:10:04.484Z,99628.84
2023-05-18T12:12:31.822Z,99627.38
2023-05-18T12:14:59.974Z,99613.47
2023-05-18T12:17:40.842Z,99618.75
2023-05-18T12:20:08.962Z,99611.75
2023-05-18T12:22:37.158Z,99615.63
2023-05-18T12:25:04.099Z,99620.16
2023-05-18T12:27:30.923Z,99614.03
2023-05-18T12:29:57.848Z,99616.56
2023-05-18T12:32:24.684Z,99615.19
2023-05-18T12:34:52.667Z,99607.81
2023-05-18T12:37:23.890Z,99608.25
2023-05-18T12:39:54.575Z,99600.69
2023-05-18T12:42:21.471Z,99596.63
2023-05-18T12:44:48.327Z,99608.38
2023-05-18T12:47:15.262Z,99609.06
2023-05-18T12:49:48.580Z,99609.53
2023-05-18T12:52:16.810Z,99613.66
2023-05-18T12:54:55.933Z,99607.94
2023-05-18T12:57:25.746Z,99599.06
2023-05-18T12:59:53.881Z,99603.06
2023-05-18T13:02:31.319Z,99592.09
2023-05-18T13:05:08.934Z,99594.22
2023-05-18T13:07:36.420Z,99595.53
2023-05-18T13:10:13.658Z,99599.97
2023-05-18T13:12:43.614Z,99593.94
2023-05-18T13:15:14.882Z,99602.38
2023-05-18T13:18:03.068Z,99595.97
2023-05-18T13:20:51.113Z,99604.78
2023-05-18T13:23:21.929Z,99599.75
2023-05-18T13:25:48.868Z,99609.31
2023-05-18T13:28:26.303Z,99609.91
2023-05-18T13:30:53.404Z,99604.84
2023-05-18T13:33:20.315Z,99605.03
2023-05-18T13:35:48.699Z,99605.72
2023-05-18T13:38:16.097Z,99601.97
2023-05-18T13:40:42.886Z,99593.94
2023-05-18T13:43:12.030Z,99595.84
2023-05-18T13:45:40.366Z,99595.41
2023-05-18T13:48:11.943Z,99588.91
2023-05-18T13:50:39.690Z,99595.22
2023-05-18T13:53:07.122Z,99597.72
2023-05-18T13:55:34.357Z,99598.34
2023-05-18T13:58:01.252Z,99592.16
2023-05-18T14:00:28.611Z,99587.47
2023-05-18T14:02:56.591Z,99594.38
2023-05-18T14:05:23.804Z,99593.56
2023-05-18T14:07:52.628Z,99588.72
2023-05-18T14:10:20.126Z,99589.84
2023-05-18T14:12:47.107Z,99594.13
2023-05-18T14:15:14.283Z,99589.13
2023-05-18T14:17:41.478Z,99585.50
2023-05-18T14:20:09.603Z,99595.50
2023-05-18T14:22:41.824Z,99589.50
2023-05-18T14:25:09.232Z,99583.78
2023-05-18T14:27:36.066Z,99585.19
2023-05-18T14:30:02.876Z,99583.22
2023-05-18T14:32:29.973Z,99585.00
2023-05-18T14:34:58.264Z,99582.91
2023-05-18T14:37:25.249Z,99582.09
2023-05-18T14:39:52.062Z,99570.25
2023-05-18T14:42:18.889Z,99569.38
2023-05-18T14:44:47.926Z,99577.19
2023-05-18T14:47:14.854Z,99578.19
2023-05-18T14:49:44.433Z,99571.59
2023-05-18T14:52:11.461Z,99571.25
2023-05-18T14:54:38.288Z,99571.03
2023-05-18T14:57:05.483Z,99572.13
2023-05-18T14:59:32.302Z,99583.53
2023-05-18T15:01:59.690Z,99568.69
2023-05-18T15:04:26.586Z,99575.03
2023-05-18T15:06:53.523Z,99578.66
2023-05-18T15:09:20.556Z,99579.31
2023-05-18T15:11:47.460Z,99559.78
2023-05-18T15:14:14.408Z,99577.00
2023-05-18T15:16:41.583Z,99575.06
2023-05-18T15:19:08.649Z,99576.53
2023-05-18T15:21:35.511Z,99575.91
2023-05-18T15:24:02.380Z,99572.19
2023-05-18T15:26:29.449Z,99585.34
2023-05-18T15:28:56.601Z,99578.38
2023-05-18T15:31:23.627Z,99583.56
2023-05-18T15:33:55.798Z,99591.00
2023-05-18T15:36:22.599Z,99592.13
2023-05-18T15:38:49.683Z,99596.69
2023-05-18T15:41:23.359Z,99595.19
2023-05-18T15:43:55.758Z,99598.34
2023-05-18T15:46:38.166Z,99603.91
2023-05-18T15:49:05.279Z,99606.78
2023-05-18T15:51:32.201Z,99600.44
2023-05-18T15:53:59.197Z,99613.28
2023-05-18T15:56:26.229Z,99607.22
2023-05-18T15:58:53.256Z,99594.03
2023-05-18T16:01:20.541Z,99607.47
2023-05-18T16:03:47.638Z,99616.34
2023-05-18T16:06:14.633Z,99626.19
2023-05-18T16:08:41.636Z,99630.25
2023-05-18T16:11:08.488Z,99629.66
2023-05-18T16:13:35.332Z,99640.81
2023-05-18T16:16:03.208Z,99643.34
2023-05-18T16:18:31.850Z,99641.84
2023-05-18T16:20:58.925Z,99639.09
2023-05-18T16:23:28.469Z,99641.78
2023-05-18T16:29:56.279Z,99649.97
2023-05-18T16:32:24.742Z,99660.63
2023-05-18T16:43:53.137Z,99661.25
2023-05-18T16:46:20.618Z,99663.47
2023-05-18T16:48:47.475Z,99665.72
2023-05-18T16:51:14.722Z,99670.09
2023-05-18T16:53:42.825Z,99670.66
2023-05-18T16:56:19.892Z,99672.72
2023-05-18T16:58:52.405Z,99680.41
2023-05-18T17:01:43.296Z,99676.63
2023-05-18T17:04:10.683Z,99687.19
2023-05-18T17:06:38.029Z,99674.22
2023-05-18T17:09:06.449Z,99687.75
2023-05-18T17:11:33.504Z,99685.66
2023-05-18T17:14:01.666Z,99690.47
2023-05-18T17:16:30.377Z,99690.38
2023-05-18T17:18:57.879Z,99686.69
2023-05-18T17:21:26.766Z,99691.72
2023-05-18T17:23:53.727Z,99698.53
2023-05-18T17:26:21.600Z,99697.78
2023-05-18T17:29:17.121Z,99698.47
2023-05-18T17:31:45.964Z,99701.59
2023-05-18T17:37:17.270Z,99717.56
2023-05-18T17:39:44.114Z,99717.28
2023-05-18T17:42:10.958Z,99711.31
2023-05-18T17:44:40.508Z,99718.47
2023-05-18T17:47:13.775Z,99719.28
2023-05-18T17:49:42.469Z,99729.94
2023-05-18T17:52:09.337Z,99723.69
2023-05-18T17:54:36.198Z,99717.66
2023-05-18T17:57:03.012Z,99724.53
2023-05-18T17:59:29.831Z,99720.47
2023-05-18T18:02:00.167Z,99729.53
2023-05-18T18:04:27.107Z,99725.19
2023-05-18T18:06:58.744Z,99727.13
2023-05-18T18:09:25.849Z,99726.59
2023-05-18T18:11:52.746Z,99728.50
2023-05-18T18:14:19.703Z,99728.19
2023-05-18T18:16:50.390Z,99730.69
2023-05-18T18:19:17.430Z,99733.09
2023-05-18T18:21:44.452Z,99722.75
2023-05-18T18:24:11.491Z,99727.94
2023-05-18T18:26:40.646Z,99729.56
2023-05-18T18:29:10.555Z,99730.38
2023-05-18T18:31:40.686Z,99725.72
2023-05-18T18:34:07.881Z,99735.56
2023-05-18T18:36:34.747Z,99733.09
2023-05-18T18:45:08.460Z,99733.31
2023-05-18T18:47:36.763Z,99738.75
2023-05-18T18:50:05.386Z,99738.50
2023-05-18T18:52:32.664Z,99733.84
2023-05-18T18:54:59.706Z,99734.94
2023-05-18T18:57:26.503Z,99735.75
2023-05-18T18:59:53.747Z,99738.47
2023-05-18T19:02:21.466Z,99744.16
2023-05-18T19:04:48.437Z,99745.28
2023-05-18T19:07:15.289Z,99746.31
2023-05-18T19:09:46.140Z,99747.13
2023-05-18T19:12:13.205Z,99752.28
2023-05-18T19:14:40.153Z,99752.00
2023-05-18T19:17:07.127Z,99753.88
2023-05-18T19:19:34.133Z,99754.66
2023-05-18T19:22:01.185Z,99761.50
2023-05-18T19:24:28.376Z,99767.75
2023-05-18T19:26:55.584Z,99760.91
2023-05-18T19:29:25.148Z,99765.53
2023-05-18T19:31:55.436Z,99755.41
2023-05-18T19:34:22.629Z,99771.16
2023-05-18T19:36:53.089Z,99772.22
2023-05-18T19:39:20.076Z,99768.41
2023-05-18T19:41:47.080Z,99767.84
2023-05-18T19:44:14.680Z,99772.78
2023-05-18T19:46:41.691Z,99768.38
2023-05-18T19:49:10.281Z,99769.44
2023-05-18T19:51:38.615Z,99771.03
2023-05-18T19:54:08.377Z,99773.47
2023-05-18T19:56:37.768Z,99777.81
2023-05-18T19:59:05.040Z,99776.41
2023-05-18T20:01:32.473Z,99779.63
2023-05-18T20:04:00.323Z,99784.25
2023-05-18T20:06:32.032Z,99773.63
2023-05-18T20:08:58.950Z,99780.66
2023-05-18T20:11:27.117Z,99779.25
2023-05-18T20:13:54.002Z,99781.19
2023-05-18T20:19:18.153Z,99780.53
2023-05-18T20:21:47.742Z,99783.53
2023-05-18T20:24:14.805Z,99785.66
2023-05-18T20:26:42.193Z,99784.47
2023-05-18T20:29:09.163Z,99780.91
2023-05-18T20:31:36.024Z,99787.44
2023-05-18T20:34:02.913Z,99778.13
2023-05-18T20:36:29.880Z,99789.84
2023-05-18T20:38:56.794Z,99780.28
2023-05-18T20:41:23.701Z,99783.22
2023-05-18T20:44:04.343Z,99779.91
2023-05-18T20:46:34.073Z,99781.19
2023-05-18T20:49:01.399Z,99789.59
2023-05-18T20:51:28.434Z,99794.44
2023-05-18T20:53:55.588Z,99789.53
2023-05-18T20:56:26.905Z,99787.28
2023-05-18T20:58:54.645Z,99783.41
2023-05-18T21:01:21.649Z,99801.06
2023-05-18T21:03:50.377Z,99798.84
2023-05-18T21:06:17.334Z,99793.94
2023-05-18T21:08:45.457Z,99796.88
2023-05-18T21:11:13.679Z,99800.06
2023-05-18T21:13:42.947Z,99801.69
2023-05-18T21:16:10.905Z,99798.97
2023-05-18T21:18:37.938Z,99798.66
2023-05-18T21:21:04.862Z,99802.88
2023-05-18T21:23:31.736Z,99797.91
2023-05-18T21:25:58.612Z,99795.69
2023-05-18T21:28:25.569Z,99790.31
2023-05-18T21:30:52.810Z,99794.09
2023-05-18T21:33:19.820Z,99796.28
2023-05-18T21:35:46.651Z,99799.00
2023-05-18T21:38:13.497Z,99796.50
2023-05-18T21:40:43.522Z,99794.53
2023-05-18T21:43:10.893Z,99796.84
2023-05-18T21:45:37.818Z,99803.09
2023-05-18T21:48:05.042Z,99796.03
2023-05-18T21:50:35.122Z,99803.84
2023-05-18T21:53:03.496Z,99804.13
2023-05-18T21:55:31.289Z,99802.97
2023-05-18T21:57:58.153Z,99805.59
2023-05-18T22:00:24.992Z,99797.06
2023-05-18T22:02:51.969Z,99804.38
2023-05-18T22:05:18.940Z,99797.56
2023-05-18T22:07:46.094Z,99800.78
2023-05-18T22:10:12.921Z,99807.28
2023-05-18T22:12:41.202Z,99798.06
2023-05-18T22:15:08.828Z,99794.59
2023-05-18T22:17:36.813Z,99802.00
2023-05-18T22:20:06.028Z,99801.50
2023-05-18T22:22:32.862Z,99804.97
2023-05-18T22:24:59.812Z,99795.94
2023-05-18T22:27:26.823Z,99803.91
2023-05-18T22:29:53.667Z,99805.09
2023-05-18T22:32:20.897Z,99805.50
2023-05-18T22:34:47.817Z,99804.28
2023-05-18T22:37:14.610Z,99804.41
2023-05-18T22:39:41.473Z,99800.16
2023-05-18T22:42:08.390Z,99800.56
2023-05-18T22:44:35.144Z,99802.25
2023-05-18T22:47:04.690Z,99799.66
2023-05-18T22:49:31.575Z,99806.81
2023-05-18T22:51:58.423Z,99798.72
2023-05-18T22:54:25.164Z,99792.75
2023-05-18T22:56:51.986Z,99803.31
2023-05-18T22:59:20.372Z,99799.78
2023-05-18T23:01:52.746Z,99798.97
2023-05-18T23:04:19.810Z,99800.53
2023-05-18T23:06:49.590Z,99802.72
2023-05-18T23:09:17.093Z,99801.63
2023-05-18T23:11:48.652Z,99803.00
2023-05-18T23:14:15.528Z,99795.63
2023-05-18T23:16:43.096Z,99796.38
2023-05-18T23:19:12.484Z,99798.28
2023-05-18T23:21:39.974Z,99802.66
2023-05-18T23:24:08.000Z,99796.66
2023-05-18T23:26:34.761Z,99798.28
2023-05-18T23:29:02.019Z,99796.66
2023-05-18T23:31:28.978Z,99797.16
2023-05-18T23:33:56.114Z,99795.25
2023-05-18T23:36:22.994Z,99797.16
2023-05-18T23:38:49.999Z,99792.78
2023-05-18T23:41:16.949Z,99795.78
2023-05-18T23:43:43.846Z,99791.97
2023-05-18T23:46:10.997Z,99791.22
2023-05-18T23:48:38.494Z,99792.03
2023-05-18T23:51:05.892Z,99802.66
2023-05-18T23:53:32.804Z,99799.34
2023-05-18T23:55:59.805Z,99792.47
2023-05-18T23:58:30.429Z,99793.81
